History for KNYNEWYO168

Theater District, New York, NY — Current Conditions
Daily Summary for August 22, 2017
  Current: High: Low: Average:
Temperature: 100.0°F 120.2°F 71.6°F 95.9°F
Dew Point: 72.1°F 78.3°F 63.0°F 69.7°F
Humidity: 40% 82% 27% 64%
Wind Speed: - 0.0mph - 0.0mph
Wind Gust: - 0.0mph - -
Wind: North - - North
Pressure: 29.77in 30.07in 29.77in -
Precipitation: 0.00in      
Statistics for the rest of the month
    High: Low: Average:
Temperature:   126.1°F 62.1°F 86.6°F
Dew Point:   91.3°F 52.5°F 63.7°F
Humidity:   98.0% 19.0% 63.6%
Wind Speed:   0.0mph from the North - 0.0mph
Wind Gust:   0.0mph from the North - -
Wind:   - - North
Pressure:   30.23in 29.71in -
Precipitation:   0.00in    
KNYNEWYO168 Weather Graph
Tabular Data for August 22, 2017
Time Temp. Heat Index Dew Point Pressure Wind Gust Humidity Rainfall
00:10 76.6°F - 66.3°F 30.07in - 70% -
00:30 76.3°F - 67.6°F 30.06in - 74% -
00:40 76.1°F - 67.4°F 30.06in - 74% -
01:00 75.9°F - 68.0°F 30.06in - 76% -
01:11 75.7°F - 68.2°F 30.06in - 77% -
01:31 75.4°F - 67.4°F 30.05in - 76% -
01:41 75.2°F - 67.6°F 30.05in - 77% -
02:01 75.0°F - 68.2°F 30.04in - 79% -
02:11 74.8°F - 68.0°F 30.04in - 79% -
02:31 74.7°F - 67.8°F 30.04in - 79% -
02:41 74.5°F - 68.0°F 30.04in - 80% -
03:01 74.3°F - 67.9°F 30.02in - 80% -
03:11 74.1°F - 65.8°F 30.03in - 75% -
03:31 73.9°F - 67.5°F 30.01in - 80% -
03:41 73.8°F - 67.0°F 30.01in - 79% -
04:12 73.2°F - 66.1°F 30.01in - 78% -
04:32 73.0°F - 67.0°F 30.01in - 81% -
04:42 72.9°F - 67.2°F 30.00in - 82% -
05:02 72.7°F - 67.0°F 30.00in - 82% -
05:12 72.5°F - 65.4°F 30.00in - 78% -
05:32 72.3°F - 65.2°F 30.00in - 78% -
05:42 72.1°F - 63.9°F 30.00in - 75% -
06:02 71.8°F - 64.3°F 30.00in - 77% -
06:12 71.6°F - 63.0°F 30.00in - 74% -
06:33 71.6°F - 63.4°F 30.00in - 75% -
06:43 71.6°F - 63.4°F 30.00in - 75% -
10:44 86.0°F 94.2°F 74.5°F 29.94in - 68% -
11:15 88.9°F 97.6°F 74.0°F 29.94in - 61% -
11:45 90.3°F 99.3°F 73.9°F 29.94in - 58% -
12:15 92.8°F 102.7°F 74.2°F 29.92in - 54% -
12:45 94.8°F 104.1°F 73.2°F 29.91in - 49% -
13:15 97.2°F 107.5°F 73.5°F 29.89in - 46% -
13:48 102.6°F 115.4°F 74.3°F 29.88in - 40% -
13:57 102.6°F 115.4°F 74.3°F 29.88in - 40% -
14:19 107.8°F 124.1°F 75.9°F 29.86in - 36% -
14:27 107.8°F 124.1°F 75.9°F 29.86in - 36% -
14:49 110.5°F 128.6°F 76.6°F 29.84in - 34% -
14:57 110.5°F 128.6°F 76.6°F 29.84in - 34% -
16:18 120.2°F 142.7°F 78.3°F 29.80in - 27% -
17:18 109.9°F 124.5°F 73.5°F 29.77in - 31% -
17:28 109.9°F 124.5°F 73.5°F 29.77in - 31% -
17:49 100.0°F 110.1°F 72.1°F 29.77in - 40% -
17:57 100.0°F 110.1°F 72.1°F 29.77in - 40% -
Comma Delimited File
Powered by Weather Underground, Inc.